createdAt,value
2023-05-06T00:00:43.109Z,100885.41
2023-05-06T00:05:49.904Z,100882.00
2023-05-06T00:11:04.225Z,100884.53
2023-05-06T00:16:10.186Z,100876.75
2023-05-06T00:21:14.944Z,100874.69
2023-05-06T00:26:34.597Z,100874.19
2023-05-06T00:31:48.357Z,100871.75
2023-05-06T00:36:56.531Z,100872.22
2023-05-06T00:42:05.096Z,100873.78
2023-05-06T00:47:17.804Z,100875.00
2023-05-06T00:52:24.527Z,100890.81
2023-05-06T00:57:29.142Z,100892.41
2023-05-06T01:03:22.568Z,100891.28
2023-05-06T01:08:31.367Z,100894.75
2023-05-06T01:14:22.990Z,100890.13
2023-05-06T01:19:46.723Z,100890.19
2023-05-06T01:24:52.248Z,100888.38
2023-05-06T01:30:02.579Z,100890.19
2023-05-06T01:35:16.301Z,100891.75
2023-05-06T01:40:33.610Z,100882.97
2023-05-06T01:45:38.887Z,100889.53
2023-05-06T01:50:54.030Z,100903.13
2023-05-06T01:56:28.977Z,100892.06
2023-05-06T02:01:35.986Z,100891.78
2023-05-06T02:06:53.927Z,100897.19
2023-05-06T02:12:09.390Z,100887.66
2023-05-06T02:18:02.276Z,100887.06
2023-05-06T02:23:14.942Z,100891.38
2023-05-06T02:28:21.643Z,100890.75
2023-05-06T02:33:28.071Z,100887.78
2023-05-06T02:39:04.777Z,100894.28
2023-05-06T02:44:11.060Z,100892.72
2023-05-06T02:50:06.915Z,100892.19
2023-05-06T02:55:15.507Z,100897.00
2023-05-06T03:00:32.063Z,100889.41
2023-05-06T03:05:48.801Z,100888.56
2023-05-06T03:11:02.974Z,100900.06
2023-05-06T03:16:16.929Z,100895.44
2023-05-06T03:21:27.059Z,100896.16
2023-05-06T03:26:35.452Z,100893.06
2023-05-06T03:31:43.380Z,100894.34
2023-05-06T03:36:50.085Z,100902.50
2023-05-06T03:41:59.296Z,100903.47
2023-05-06T03:47:07.127Z,100901.25
2023-05-06T03:52:14.120Z,100907.41
2023-05-06T03:57:18.654Z,100907.00
2023-05-06T04:02:34.345Z,100909.50
2023-05-06T04:07:39.606Z,100917.25
2023-05-06T04:12:43.626Z,100904.28
2023-05-06T04:17:55.848Z,100910.19
2023-05-06T04:23:03.292Z,100926.09
2023-05-06T04:28:07.580Z,100923.69
2023-05-06T04:33:14.689Z,100934.53
2023-05-06T04:38:19.393Z,100935.25
2023-05-06T04:43:24.812Z,100936.50
2023-05-06T04:54:27.909Z,100942.81
2023-05-06T04:59:32.008Z,100939.19
2023-05-06T05:04:42.640Z,100933.50
2023-05-06T05:09:50.728Z,100934.69
2023-05-06T05:15:04.871Z,100935.38
2023-05-06T05:20:11.587Z,100940.88
2023-05-06T05:25:15.995Z,100930.03
2023-05-06T05:30:33.691Z,100935.31
2023-05-06T05:35:41.205Z,100951.63
2023-05-06T05:40:46.621Z,100951.47
2023-05-06T05:51:19.833Z,100977.56
2023-05-06T05:56:24.123Z,100986.69
2023-05-06T06:01:28.343Z,100984.72
2023-05-06T06:06:33.991Z,100979.41
2023-05-06T06:11:38.915Z,100983.31
2023-05-06T06:16:43.413Z,100975.84
2023-05-06T06:21:48.440Z,100988.66
2023-05-06T06:26:52.799Z,100990.56
2023-05-06T06:31:58.082Z,101002.59
2023-05-06T06:37:02.962Z,101002.91
2023-05-06T06:42:07.158Z,101004.66
2023-05-06T06:47:23.731Z,101000.88
2023-05-06T06:52:28.585Z,101012.31
2023-05-06T06:57:31.988Z,101021.56
2023-05-06T07:02:35.427Z,101020.25
2023-05-06T07:07:40.638Z,101013.25
2023-05-06T07:12:44.185Z,101018.75
2023-05-06T07:17:47.704Z,101016.09
2023-05-06T07:22:52.860Z,101030.22
2023-05-06T07:27:56.983Z,101034.84
2023-05-06T07:33:01.142Z,101033.66
2023-05-06T07:38:06.354Z,101028.72
2023-05-06T07:43:09.931Z,101040.91
2023-05-06T07:48:13.464Z,101039.84
2023-05-06T07:53:18.673Z,101043.56
2023-05-06T07:58:22.235Z,101034.97
2023-05-06T08:03:25.920Z,101052.56
2023-05-06T08:08:30.937Z,101045.56
2023-05-06T08:13:34.484Z,101049.44
2023-05-06T08:18:37.887Z,101060.78
2023-05-06T08:23:42.819Z,101048.78
2023-05-06T08:28:46.728Z,101063.34
2023-05-06T08:33:51.523Z,101065.69
2023-05-06T08:38:57.344Z,101063.06
2023-05-06T08:44:03.088Z,101060.78
2023-05-06T08:49:07.031Z,101063.28
2023-05-06T08:54:12.842Z,101057.41
2023-05-06T08:59:16.379Z,101067.84
2023-05-06T09:04:20.637Z,101068.75
2023-05-06T09:09:25.670Z,101061.81
2023-05-06T09:14:29.164Z,101065.81
2023-05-06T09:19:32.748Z,101070.56
2023-05-06T09:24:38.078Z,101065.75
2023-05-06T09:30:00.788Z,101065.13
2023-05-06T09:35:04.787Z,101066.84
2023-05-06T09:40:10.928Z,101074.66
2023-05-06T09:45:17.003Z,101069.72
2023-05-06T09:50:22.381Z,101090.47
2023-05-06T09:55:28.755Z,101079.59
2023-05-06T10:00:33.070Z,101086.75
2023-05-06T10:05:37.599Z,101073.50
2023-05-06T10:10:42.939Z,101066.66
2023-05-06T10:15:47.809Z,101067.50
2023-05-06T10:20:53.595Z,101063.59
2023-05-06T10:25:59.120Z,101079.97
2023-05-06T10:31:04.777Z,101079.16
2023-05-06T10:36:15.523Z,101064.22
2023-05-06T10:41:22.153Z,101058.50
2023-05-06T10:46:26.387Z,101043.44
2023-05-06T10:51:29.993Z,101062.38
2023-05-06T10:56:36.667Z,101053.00
2023-05-06T11:01:41.187Z,101062.16
2023-05-06T11:06:47.036Z,101057.00
2023-05-06T11:11:54.614Z,101055.91
2023-05-06T11:16:59.200Z,101049.00
2023-05-06T11:22:04.047Z,101061.03
2023-05-06T11:27:09.328Z,101056.69
2023-05-06T11:32:23.909Z,101043.97
2023-05-06T11:37:28.887Z,101049.84
2023-05-06T11:42:33.736Z,101051.47
2023-05-06T11:47:37.127Z,101066.97
2023-05-06T11:52:40.871Z,101053.66
2023-05-06T11:57:48.849Z,101057.53
2023-05-06T12:02:56.709Z,101065.97
2023-05-06T12:08:00.511Z,101053.50
2023-05-06T12:13:07.059Z,101055.78
2023-05-06T12:18:14.563Z,101058.78
2023-05-06T12:23:18.297Z,101065.06
2023-05-06T12:28:24.028Z,101051.78
2023-05-06T12:33:27.737Z,101048.56
2023-05-06T12:38:32.705Z,101063.69
2023-05-06T12:43:37.428Z,101062.59
2023-05-06T12:48:42.758Z,101057.72
2023-05-06T12:53:46.326Z,101059.31
2023-05-06T12:59:04.525Z,101058.72
2023-05-06T13:04:07.983Z,101071.72
2023-05-06T13:09:13.080Z,101060.19
2023-05-06T13:14:19.250Z,101066.94
2023-05-06T13:19:32.489Z,101063.75
2023-05-06T13:24:36.626Z,101066.16
2023-05-06T13:29:41.595Z,101063.69
2023-05-06T13:34:44.984Z,101047.97
2023-05-06T13:39:48.635Z,101044.91
2023-05-06T13:44:53.320Z,101047.88
2023-05-06T13:49:57.294Z,101043.69
2023-05-06T13:55:00.888Z,101036.78
2023-05-06T14:00:07.976Z,101030.31
2023-05-06T14:05:11.522Z,101025.34
2023-05-06T14:10:15.888Z,101026.19
2023-05-06T14:15:21.133Z,101023.00
2023-05-06T14:20:24.784Z,101006.97
2023-05-06T14:25:28.251Z,101004.97
2023-05-06T14:30:34.209Z,101013.84
2023-05-06T14:35:41.097Z,100996.19
2023-05-06T14:40:44.453Z,100989.72
2023-05-06T14:45:49.145Z,100992.53
2023-05-06T14:50:53.026Z,100992.16
2023-05-06T14:55:57.372Z,100987.72
2023-05-06T15:01:02.232Z,100983.91
2023-05-06T15:06:05.994Z,100982.22
2023-05-06T15:11:09.819Z,100976.91
2023-05-06T15:16:14.537Z,100983.13
2023-05-06T15:21:17.934Z,100986.06
2023-05-06T15:26:21.424Z,100984.41
2023-05-06T15:31:26.773Z,100988.03
2023-05-06T15:36:31.186Z,100990.53
2023-05-06T15:41:36.046Z,100982.03
2023-05-06T15:46:41.152Z,100988.81
2023-05-06T15:51:44.725Z,100992.16
2023-05-06T15:56:48.445Z,100983.28
2023-05-06T16:06:59.638Z,100999.47
2023-05-06T16:12:03.119Z,100997.53
2023-05-06T16:17:07.924Z,100995.00
2023-05-06T16:22:11.700Z,100998.88
2023-05-06T16:27:15.983Z,100991.00
2023-05-06T16:32:20.750Z,100984.69
2023-05-06T16:37:24.212Z,100988.75
2023-05-06T16:42:27.703Z,100993.06
2023-05-06T16:47:33.184Z,100995.25
2023-05-06T16:52:39.232Z,100992.47
2023-05-06T16:57:44.257Z,101003.78
2023-05-06T17:02:49.175Z,101020.34
2023-05-06T17:07:52.875Z,101030.47
2023-05-06T17:12:56.873Z,101024.41
2023-05-06T17:18:02.542Z,101024.41
2023-05-06T17:23:06.480Z,101031.47
2023-05-06T17:28:09.816Z,101041.81
2023-05-06T17:33:14.707Z,101042.41
2023-05-06T17:38:18.440Z,101045.47
2023-05-06T17:43:22.903Z,101059.41
2023-05-06T17:48:27.875Z,101063.97
2023-05-06T17:53:33.029Z,101079.63
2023-05-06T17:58:36.809Z,101087.91
2023-05-06T18:03:43.804Z,101088.84
2023-05-06T18:08:47.242Z,101103.53
2023-05-06T18:13:50.668Z,101107.31
2023-05-06T18:18:55.791Z,101120.63
2023-05-06T18:24:10.301Z,101123.66
2023-05-06T18:29:18.928Z,101129.59
2023-05-06T18:34:23.877Z,101136.97
2023-05-06T18:39:27.419Z,101132.91
2023-05-06T18:44:30.970Z,101137.59
2023-05-06T18:49:36.419Z,101133.06
2023-05-06T18:54:40.058Z,101153.00
2023-05-06T18:59:43.706Z,101159.78
2023-05-06T19:04:48.481Z,101168.34
2023-05-06T19:09:51.901Z,101167.44
2023-05-06T19:14:55.645Z,101161.81
2023-05-06T19:20:00.682Z,101180.91
2023-05-06T19:25:04.534Z,101180.84
2023-05-06T19:30:09.626Z,101191.63
2023-05-06T19:35:16.830Z,101198.97
2023-05-06T19:40:20.623Z,101197.88
2023-05-06T19:45:24.142Z,101194.59
2023-05-06T19:50:29.251Z,101203.75
2023-05-06T19:55:33.277Z,101215.66
2023-05-06T20:00:36.922Z,101218.38
2023-05-06T20:05:42.492Z,101214.75
2023-05-06T20:10:45.912Z,101215.34
2023-05-06T20:15:49.868Z,101211.06
2023-05-06T20:20:54.946Z,101203.00
2023-05-06T20:25:58.338Z,101202.38
2023-05-06T20:31:01.865Z,101205.75
2023-05-06T20:36:07.591Z,101207.31
2023-05-06T20:41:11.301Z,101216.41
2023-05-06T20:46:14.826Z,101220.50
2023-05-06T20:51:20.175Z,101224.34
2023-05-06T20:56:25.352Z,101217.69
2023-05-06T21:01:30.795Z,101228.50
2023-05-06T21:06:35.709Z,101229.66
2023-05-06T21:11:49.272Z,101231.53
2023-05-06T21:16:53.187Z,101233.97
2023-05-06T21:21:58.090Z,101240.34
2023-05-06T21:27:01.844Z,101226.31
2023-05-06T21:32:05.448Z,101228.75
2023-05-06T21:37:10.372Z,101225.66
2023-05-06T21:42:14.380Z,101226.03
2023-05-06T21:47:18.083Z,101229.81
2023-05-06T21:52:23.120Z,101230.91
2023-05-06T21:57:26.742Z,101231.63
2023-05-06T22:02:30.334Z,101240.84
2023-05-06T22:07:35.697Z,101235.91
2023-05-06T22:12:39.371Z,101228.50
2023-05-06T22:17:43.068Z,101233.72
2023-05-06T22:22:47.923Z,101235.56
2023-05-06T22:27:51.315Z,101236.88
2023-05-06T22:32:54.723Z,101230.66
2023-05-06T22:37:59.734Z,101238.22
2023-05-06T22:43:03.371Z,101233.66
2023-05-06T22:48:07.525Z,101245.06
2023-05-06T22:53:15.494Z,101253.78
2023-05-06T22:58:19.133Z,101248.16
2023-05-06T23:03:23.270Z,101248.94
2023-05-06T23:08:28.294Z,101258.13
2023-05-06T23:13:36.136Z,101236.69
2023-05-06T23:18:39.652Z,101247.78
2023-05-06T23:23:44.688Z,101259.44
2023-05-06T23:28:48.046Z,101250.56
2023-05-06T23:33:51.357Z,101265.34
2023-05-06T23:38:56.622Z,101250.22
2023-05-06T23:44:00.261Z,101264.25
2023-05-06T23:49:05.297Z,101264.03
2023-05-06T23:54:10.813Z,101266.81
2023-05-06T23:59:14.427Z,101270.19
